createdAt,value
2019-02-05T00:01:37.917Z,28.17
2019-02-05T00:04:28.255Z,20.00
2019-02-05T00:07:18.222Z,20.48
2019-02-05T00:10:08.790Z,21.65
2019-02-05T00:12:58.893Z,27.70
2019-02-05T00:15:49.183Z,25.72
2019-02-05T00:18:39.316Z,23.30
2019-02-05T00:21:32.603Z,22.93
2019-02-05T00:24:22.623Z,24.92
2019-02-05T00:27:12.626Z,27.17
2019-02-05T00:30:02.615Z,27.27
2019-02-05T00:32:52.945Z,31.45
2019-02-05T00:35:43.221Z,25.37
2019-02-05T00:38:33.395Z,27.22
2019-02-05T00:41:23.843Z,23.80
2019-02-05T00:44:13.626Z,22.67
2019-02-05T00:47:03.333Z,22.27
2019-02-05T00:49:53.871Z,24.72
2019-02-05T00:52:43.753Z,25.27
2019-02-05T00:55:33.694Z,22.05
2019-02-05T00:58:24.144Z,20.72
2019-02-05T01:01:15.488Z,25.17
2019-02-05T01:04:06.092Z,24.27
2019-02-05T01:06:55.695Z,22.10
2019-02-05T01:09:45.470Z,21.12
2019-02-05T01:12:35.236Z,25.45
2019-02-05T01:15:25.802Z,20.68
2019-02-05T01:18:15.606Z,21.50
2019-02-05T01:21:05.570Z,22.85
2019-02-05T01:23:56.724Z,22.02
2019-02-05T01:26:46.943Z,23.47
2019-02-05T01:29:37.136Z,18.10
2019-02-05T01:32:27.112Z,20.35
2019-02-05T01:35:17.284Z,21.93
2019-02-05T01:38:06.911Z,21.33
2019-02-05T01:40:56.926Z,22.40
2019-02-05T01:43:47.293Z,19.25
2019-02-05T01:46:38.942Z,21.48
2019-02-05T01:49:28.846Z,24.15
2019-02-05T01:52:19.292Z,17.77
2019-02-05T01:55:10.674Z,18.48
2019-02-05T01:58:01.343Z,24.60
2019-02-05T02:00:54.207Z,23.42
2019-02-05T02:03:44.681Z,20.77
2019-02-05T02:06:34.905Z,18.90
2019-02-05T02:09:26.522Z,22.22
2019-02-05T02:12:17.083Z,25.48
2019-02-05T02:15:08.123Z,21.68
2019-02-05T02:17:58.635Z,23.70
2019-02-05T02:20:48.444Z,23.90
2019-02-05T02:23:38.044Z,28.23
2019-02-05T02:26:28.013Z,23.80
2019-02-05T02:29:17.605Z,24.35
2019-02-05T02:32:07.306Z,25.77
2019-02-05T02:34:57.383Z,27.45
2019-02-05T02:37:47.743Z,25.95
2019-02-05T02:40:38.566Z,28.77
2019-02-05T02:43:28.565Z,24.75
2019-02-05T02:46:18.510Z,29.95
2019-02-05T02:49:08.626Z,25.82
2019-02-05T02:51:58.821Z,27.22
2019-02-05T02:54:49.006Z,27.87
2019-02-05T02:57:39.072Z,33.53
2019-02-05T03:00:28.763Z,28.17
2019-02-05T03:03:18.234Z,27.93
2019-02-05T03:06:08.293Z,32.98
2019-02-05T03:08:58.182Z,25.48
2019-02-05T03:11:48.873Z,39.53
2019-02-05T03:14:38.386Z,26.57
2019-02-05T03:17:28.155Z,32.00
2019-02-05T03:20:18.765Z,33.88
2019-02-05T03:23:08.065Z,29.80
2019-02-05T03:25:58.303Z,31.40
2019-02-05T03:28:47.966Z,29.07
2019-02-05T03:31:37.987Z,29.00
2019-02-05T03:34:28.066Z,31.70
2019-02-05T03:37:17.923Z,33.30
2019-02-05T03:40:16.917Z,31.00
2019-02-05T03:43:06.674Z,32.33
2019-02-05T03:45:58.595Z,30.97
2019-02-05T03:48:50.335Z,28.05
2019-02-05T03:51:52.516Z,36.20
2019-02-05T03:55:38.600Z,28.00
2019-02-05T03:59:04.144Z,29.92
2019-02-05T04:02:43.784Z,31.75
2019-02-05T04:06:07.972Z,32.83
2019-02-05T04:09:38.916Z,29.50
2019-02-05T04:13:19.005Z,31.02
2019-02-05T04:16:45.107Z,29.98
2019-02-05T04:20:23.933Z,29.52
2019-02-05T04:23:52.255Z,36.17
2019-02-05T04:27:45.174Z,32.70
2019-02-05T04:30:55.856Z,29.65
2019-02-05T04:34:18.632Z,36.93
2019-02-05T04:37:25.586Z,34.53
2019-02-05T04:40:40.475Z,34.03
2019-02-05T04:44:08.135Z,32.33
2019-02-05T04:47:14.454Z,27.77
2019-02-05T04:51:03.452Z,33.15
2019-02-05T04:54:12.392Z,26.42
2019-02-05T04:57:31.002Z,31.55
2019-02-05T05:00:57.893Z,45.65
2019-02-05T05:04:11.412Z,34.00
2019-02-05T05:07:41.463Z,36.17
2019-02-05T05:10:31.976Z,34.30
2019-02-05T05:13:22.361Z,33.55
2019-02-05T05:16:14.293Z,42.60
2019-02-05T05:19:05.294Z,34.55
2019-02-05T05:21:55.835Z,42.67
2019-02-05T05:24:46.096Z,29.07
2019-02-05T05:27:35.852Z,41.33
2019-02-05T05:30:25.764Z,30.57
2019-02-05T05:33:15.172Z,39.00
2019-02-05T05:36:05.471Z,34.13
2019-02-05T05:38:55.172Z,35.40
2019-02-05T05:41:45.034Z,35.75
2019-02-05T05:44:34.851Z,32.75
2019-02-05T05:47:24.905Z,32.23
2019-02-05T05:50:16.032Z,32.15
2019-02-05T05:53:26.394Z,38.10
2019-02-05T05:56:16.626Z,30.00
2019-02-05T05:59:07.332Z,31.37
2019-02-05T06:01:57.210Z,35.90
2019-02-05T06:04:47.636Z,38.60
2019-02-05T06:07:37.691Z,44.73
2019-02-05T06:10:28.228Z,33.15
2019-02-05T06:13:21.007Z,37.48
2019-02-05T06:16:10.835Z,38.63
2019-02-05T06:19:00.253Z,52.45
2019-02-05T06:21:50.356Z,39.65
2019-02-05T06:24:40.648Z,43.38
2019-02-05T06:27:30.394Z,38.75
2019-02-05T06:30:20.636Z,42.23
2019-02-05T06:33:12.522Z,40.78
2019-02-05T06:36:02.738Z,34.18
2019-02-05T06:38:56.299Z,39.18
2019-02-05T06:41:45.861Z,39.60
2019-02-05T06:44:35.651Z,38.25
2019-02-05T06:47:25.802Z,41.40
2019-02-05T06:50:19.314Z,40.92
2019-02-05T06:53:09.313Z,50.80
2019-02-05T06:55:59.562Z,42.53
2019-02-05T06:58:49.404Z,35.25
2019-02-05T07:01:39.574Z,41.83
2019-02-05T07:04:29.641Z,36.50
2019-02-05T07:07:19.783Z,41.63
2019-02-05T07:10:12.835Z,36.00
2019-02-05T07:13:02.423Z,42.48
2019-02-05T07:15:52.259Z,38.40
2019-02-05T07:18:42.257Z,44.05
2019-02-05T07:21:32.625Z,40.60
2019-02-05T07:24:23.168Z,38.60
2019-02-05T07:27:13.460Z,36.10
2019-02-05T07:30:03.506Z,40.67
2019-02-05T07:32:53.886Z,44.90
2019-02-05T07:35:45.279Z,46.90
2019-02-05T07:38:34.876Z,42.03
2019-02-05T07:41:24.570Z,55.12
2019-02-05T07:44:15.538Z,38.50
2019-02-05T07:47:05.990Z,37.35
2019-02-05T07:49:56.480Z,38.78
2019-02-05T07:52:46.690Z,37.20
2019-02-05T07:55:36.649Z,42.50
2019-02-05T07:58:27.906Z,46.58
2019-02-05T08:01:18.427Z,44.80
2019-02-05T08:04:08.781Z,36.10
2019-02-05T08:07:00.422Z,40.58
2019-02-05T08:09:50.841Z,45.80
2019-02-05T08:12:40.951Z,37.88
2019-02-05T08:15:33.069Z,43.05
2019-02-05T08:18:23.702Z,45.05
2019-02-05T08:21:14.450Z,42.93
2019-02-05T08:24:06.866Z,41.88
2019-02-05T08:26:58.920Z,40.48
2019-02-05T08:29:49.053Z,33.40
2019-02-05T08:32:39.339Z,51.08
2019-02-05T08:35:35.245Z,48.60
2019-02-05T08:38:26.955Z,42.33
2019-02-05T08:41:17.344Z,42.00
2019-02-05T08:44:07.792Z,34.30
2019-02-05T08:46:57.960Z,39.63
2019-02-05T08:49:48.122Z,44.35
2019-02-05T08:52:41.379Z,34.58
2019-02-05T08:55:31.958Z,39.45
2019-02-05T08:58:30.721Z,44.83
2019-02-05T09:01:14.506Z,35.88
2019-02-05T09:04:06.123Z,33.38
2019-02-05T09:06:56.280Z,37.20
2019-02-05T09:09:46.530Z,37.25
2019-02-05T09:12:36.264Z,35.25
2019-02-05T09:15:29.387Z,39.73
2019-02-05T09:18:17.339Z,40.23
2019-02-05T09:21:07.587Z,39.75
2019-02-05T09:23:57.809Z,40.30
2019-02-05T09:26:47.600Z,30.97
2019-02-05T09:29:37.537Z,32.25
2019-02-05T09:32:34.781Z,36.35
2019-02-05T09:35:19.247Z,31.25
2019-02-05T09:38:09.521Z,22.87
2019-02-05T09:40:59.418Z,29.30
2019-02-05T09:43:49.490Z,28.57
2019-02-05T09:46:39.369Z,30.48
2019-02-05T09:49:29.420Z,29.80
2019-02-05T09:52:19.166Z,30.20
2019-02-05T09:55:10.849Z,42.20
2019-02-05T09:58:00.857Z,35.60
2019-02-05T10:00:50.522Z,31.20
2019-02-05T10:03:40.770Z,36.53
2019-02-05T10:06:30.595Z,36.70
2019-02-05T10:09:20.507Z,38.00
2019-02-05T10:12:10.417Z,37.63
2019-02-05T10:15:00.471Z,46.85
2019-02-05T10:17:50.157Z,31.40
2019-02-05T10:20:40.600Z,39.42
2019-02-05T10:23:30.716Z,33.67
2019-02-05T10:26:20.776Z,55.58
2019-02-05T10:29:10.578Z,34.60
2019-02-05T10:32:00.555Z,34.83
2019-02-05T10:34:50.556Z,38.55
2019-02-05T10:37:41.640Z,40.85
2019-02-05T10:40:31.686Z,34.05
2019-02-05T10:43:21.481Z,37.05
2019-02-05T10:46:12.657Z,43.25
2019-02-05T10:49:03.389Z,32.60
2019-02-05T10:51:53.517Z,43.45
2019-02-05T10:54:43.199Z,28.00
2019-02-05T10:57:33.419Z,25.72
2019-02-05T11:00:28.452Z,35.38
2019-02-05T11:03:18.527Z,25.68
2019-02-05T11:06:08.086Z,32.60
2019-02-05T11:08:58.089Z,22.98
2019-02-05T11:11:48.097Z,27.32
2019-02-05T11:14:38.890Z,33.40
2019-02-05T11:17:29.137Z,35.63
2019-02-05T11:20:21.340Z,26.17
2019-02-05T11:23:11.347Z,25.50
2019-02-05T11:26:01.470Z,24.35
2019-02-05T11:28:51.507Z,18.55
2019-02-05T11:31:41.901Z,52.23
2019-02-05T11:34:31.939Z,25.48
2019-02-05T11:37:22.342Z,25.90
2019-02-05T11:40:14.787Z,29.15
2019-02-05T11:43:04.987Z,23.47
2019-02-05T11:45:54.617Z,22.73
2019-02-05T11:48:44.719Z,30.80
2019-02-05T11:51:35.060Z,20.85
2019-02-05T11:54:25.496Z,25.37
2019-02-05T11:57:15.477Z,23.20
2019-02-05T12:00:06.360Z,25.15
2019-02-05T12:02:56.300Z,26.30
2019-02-05T12:05:45.826Z,18.80
2019-02-05T12:08:35.617Z,21.82
2019-02-05T12:11:25.555Z,23.42
2019-02-05T12:14:15.798Z,31.77
2019-02-05T12:17:05.761Z,30.90
2019-02-05T12:19:55.849Z,28.75
2019-02-05T12:22:46.797Z,23.67
2019-02-05T12:25:37.168Z,23.05
2019-02-05T12:28:26.942Z,33.65
2019-02-05T12:31:16.669Z,34.85
2019-02-05T12:34:06.717Z,28.92
2019-02-05T12:36:56.549Z,27.75
2019-02-05T12:39:46.447Z,27.20
2019-02-05T12:42:36.519Z,26.25
2019-02-05T12:45:27.938Z,29.98
2019-02-05T12:48:17.591Z,34.73
2019-02-05T12:51:10.840Z,21.00
2019-02-05T12:54:00.670Z,23.07
2019-02-05T12:56:51.023Z,31.85
2019-02-05T12:59:41.074Z,34.50
2019-02-05T13:02:30.871Z,27.82
2019-02-05T13:05:20.899Z,23.80
2019-02-05T13:08:10.929Z,23.83
2019-02-05T13:11:00.794Z,35.50
2019-02-05T13:13:50.777Z,21.52
2019-02-05T13:16:40.701Z,25.10
2019-02-05T13:19:30.656Z,21.23
2019-02-05T13:22:20.771Z,20.55
2019-02-05T13:25:15.237Z,28.38
2019-02-05T13:28:06.531Z,22.48
2019-02-05T13:31:07.365Z,35.63
2019-02-05T13:33:48.462Z,28.80
2019-02-05T13:36:37.982Z,25.82
2019-02-05T13:39:29.316Z,22.82
2019-02-05T13:42:19.595Z,24.32
2019-02-05T13:45:11.508Z,31.33
2019-02-05T13:48:01.638Z,33.38
2019-02-05T13:50:52.437Z,28.30
2019-02-05T13:53:42.824Z,23.25
2019-02-05T13:56:33.530Z,22.20
2019-02-05T13:59:24.831Z,20.72
2019-02-05T14:02:15.145Z,26.97
2019-02-05T14:05:06.010Z,28.65
2019-02-05T14:07:56.698Z,19.87
2019-02-05T14:10:47.853Z,25.80
2019-02-05T14:13:38.144Z,22.40
2019-02-05T14:16:29.361Z,25.48
2019-02-05T14:19:19.788Z,24.65
2019-02-05T14:22:09.974Z,27.55
2019-02-05T14:24:59.970Z,19.90
2019-02-05T14:27:50.958Z,25.23
2019-02-05T14:30:50.120Z,24.50
2019-02-05T14:33:40.329Z,23.25
2019-02-05T14:36:32.869Z,16.35
2019-02-05T14:39:23.189Z,23.42
2019-02-05T14:42:13.239Z,20.80
2019-02-05T14:45:03.786Z,15.78
2019-02-05T14:47:54.356Z,22.90
2019-02-05T14:50:45.008Z,17.25
2019-02-05T14:53:34.989Z,24.65
2019-02-05T14:56:26.567Z,25.95
2019-02-05T14:59:27.550Z,18.40
2019-02-05T15:02:17.840Z,17.32
2019-02-05T15:05:09.040Z,22.35
2019-02-05T15:08:21.159Z,45.75
2019-02-05T15:11:11.228Z,19.50
2019-02-05T15:14:00.687Z,16.25
2019-02-05T15:16:52.890Z,16.57
2019-02-05T15:19:43.251Z,23.07
2019-02-05T15:22:33.899Z,22.42
2019-02-05T15:25:24.019Z,22.98
2019-02-05T15:28:13.545Z,16.67
2019-02-05T15:31:03.249Z,17.80
2019-02-05T15:34:02.523Z,21.68
2019-02-05T15:36:52.626Z,16.40
2019-02-05T15:39:42.365Z,16.30
2019-02-05T15:42:32.174Z,26.48
2019-02-05T15:45:22.386Z,18.95
2019-02-05T15:48:11.996Z,13.78
2019-02-05T15:51:01.639Z,14.68
2019-02-05T15:53:51.557Z,16.77
2019-02-05T15:56:41.761Z,17.73
2019-02-05T15:59:32.006Z,15.05
2019-02-05T16:02:22.177Z,22.48
2019-02-05T16:05:12.764Z,17.12
2019-02-05T16:08:02.651Z,18.65
2019-02-05T16:10:52.476Z,23.07
2019-02-05T16:13:42.119Z,15.58
2019-02-05T16:16:32.092Z,19.05
2019-02-05T16:19:22.010Z,31.15
2019-02-05T16:22:12.324Z,17.60
2019-02-05T16:25:02.250Z,18.10
2019-02-05T16:27:51.957Z,21.40
2019-02-05T16:30:44.866Z,22.17
2019-02-05T16:33:34.586Z,18.87
2019-02-05T16:36:24.280Z,20.88
2019-02-05T16:39:14.481Z,19.15
2019-02-05T16:42:05.061Z,22.62
2019-02-05T16:44:55.112Z,20.05
2019-02-05T16:47:45.129Z,19.05
2019-02-05T16:50:37.414Z,19.23
2019-02-05T16:53:27.341Z,20.80
2019-02-05T16:56:17.982Z,25.25
2019-02-05T16:59:07.889Z,21.42
2019-02-05T17:01:57.578Z,31.80
2019-02-05T17:04:47.511Z,30.37
2019-02-05T17:07:37.640Z,18.90
2019-02-05T17:10:27.770Z,19.02
2019-02-05T17:13:17.659Z,18.07
2019-02-05T17:16:07.309Z,11.78
2019-02-05T17:18:58.341Z,20.70
2019-02-05T17:21:48.169Z,26.23
2019-02-05T17:24:38.257Z,14.33
2019-02-05T17:27:27.790Z,18.12
2019-02-05T17:30:22.990Z,16.93
2019-02-05T17:33:12.739Z,21.05
2019-02-05T17:36:03.777Z,15.25
2019-02-05T17:38:54.138Z,21.30
2019-02-05T17:41:44.176Z,17.98
2019-02-05T17:44:34.419Z,16.35
2019-02-05T17:47:25.069Z,19.98
2019-02-05T17:50:15.369Z,19.45
2019-02-05T17:53:05.939Z,22.95
2019-02-05T17:55:55.897Z,24.05
2019-02-05T17:58:46.008Z,29.60
2019-02-05T18:01:37.470Z,25.35
2019-02-05T18:04:27.389Z,26.10
2019-02-05T18:07:17.390Z,26.07
2019-02-05T18:10:08.790Z,33.53
2019-02-05T18:12:58.493Z,28.75
2019-02-05T18:15:48.526Z,28.35
2019-02-05T18:18:39.076Z,27.70
2019-02-05T18:21:29.142Z,21.77
2019-02-05T18:24:19.258Z,29.70
2019-02-05T18:27:09.019Z,22.55
2019-02-05T18:29:58.769Z,25.88
2019-02-05T18:32:48.559Z,26.25
2019-02-05T18:35:38.820Z,25.02
2019-02-05T18:38:29.059Z,24.43
2019-02-05T18:41:19.045Z,26.80
2019-02-05T18:44:09.230Z,25.40
2019-02-05T18:46:59.301Z,21.05
2019-02-05T18:49:49.249Z,21.45
2019-02-05T18:52:40.286Z,25.55
2019-02-05T18:55:30.970Z,24.98
2019-02-05T18:58:20.827Z,18.77
2019-02-05T19:01:10.866Z,29.48
2019-02-05T19:04:00.906Z,24.07
2019-02-05T19:06:51.256Z,22.50
2019-02-05T19:09:40.975Z,21.25
2019-02-05T19:12:30.769Z,29.27
2019-02-05T19:15:22.946Z,22.87
2019-02-05T19:18:12.956Z,23.85
2019-02-05T19:21:02.819Z,24.30
2019-02-05T19:23:58.537Z,19.35
2019-02-05T19:26:51.679Z,28.25
2019-02-05T19:29:41.928Z,23.70
2019-02-05T19:32:32.028Z,27.05
2019-02-05T19:35:22.008Z,21.05
2019-02-05T19:38:13.498Z,26.45
2019-02-05T19:41:04.626Z,32.53
2019-02-05T19:43:54.331Z,22.48
2019-02-05T19:47:06.071Z,26.90
2019-02-05T19:49:58.583Z,21.02
2019-02-05T19:52:50.127Z,28.70
2019-02-05T19:55:39.961Z,19.67
2019-02-05T19:58:29.785Z,20.45
2019-02-05T20:01:19.549Z,24.67
2019-02-05T20:04:09.404Z,27.35
2019-02-05T20:06:59.709Z,26.05
2019-02-05T20:09:49.590Z,28.95
2019-02-05T20:12:39.579Z,27.60
2019-02-05T20:15:29.783Z,35.52
2019-02-05T20:18:19.519Z,23.75
2019-02-05T20:21:09.749Z,22.00
2019-02-05T20:23:59.853Z,28.85
2019-02-05T20:26:49.619Z,24.27
2019-02-05T20:29:39.779Z,30.57
2019-02-05T20:32:29.899Z,33.38
2019-02-05T20:35:19.800Z,29.82
2019-02-05T20:38:10.495Z,26.87
2019-02-05T20:41:00.843Z,34.83
2019-02-05T20:43:50.959Z,26.12
2019-02-05T20:46:41.060Z,36.70
2019-02-05T20:49:30.741Z,29.87
2019-02-05T20:52:20.976Z,34.20
2019-02-05T20:55:13.350Z,32.53
2019-02-05T20:58:03.439Z,29.27
2019-02-05T21:00:53.299Z,36.25
2019-02-05T21:03:43.341Z,30.05
2019-02-05T21:06:33.295Z,42.33
2019-02-05T21:09:23.567Z,37.00
2019-02-05T21:12:13.006Z,33.88
2019-02-05T21:15:02.719Z,32.75
2019-02-05T21:17:53.206Z,43.28
2019-02-05T21:20:42.636Z,34.40
2019-02-05T21:23:32.552Z,39.58
2019-02-05T21:26:22.717Z,47.55
2019-02-05T21:29:12.541Z,47.10
2019-02-05T21:32:03.106Z,40.35
2019-02-05T21:34:53.496Z,40.67
2019-02-05T21:37:43.587Z,39.45
2019-02-05T21:40:33.561Z,35.13
2019-02-05T21:43:23.580Z,34.18
2019-02-05T21:46:13.702Z,34.58
2019-02-05T21:49:03.480Z,44.00
2019-02-05T21:51:53.270Z,50.90
2019-02-05T21:54:43.249Z,48.58
2019-02-05T21:57:32.947Z,41.28
2019-02-05T22:00:31.400Z,40.40
2019-02-05T22:03:21.151Z,46.42
2019-02-05T22:06:11.023Z,37.50
2019-02-05T22:09:01.106Z,53.20
2019-02-05T22:11:52.476Z,51.08
2019-02-05T22:14:42.407Z,44.00
2019-02-05T22:17:32.692Z,40.03
2019-02-05T22:20:24.789Z,48.00
2019-02-05T22:23:14.718Z,53.85
2019-02-05T22:26:04.887Z,57.27
2019-02-05T22:28:54.667Z,54.70
2019-02-05T22:31:44.877Z,56.00
2019-02-05T22:34:39.260Z,64.03
2019-02-05T22:37:26.647Z,72.87
2019-02-05T22:40:17.339Z,52.38
2019-02-05T22:43:07.021Z,57.27
2019-02-05T22:45:56.960Z,53.63
2019-02-05T22:48:47.049Z,62.83
2019-02-05T22:51:37.038Z,67.25
2019-02-05T22:54:27.013Z,72.00
2019-02-05T22:57:17.190Z,64.42
2019-02-05T23:00:33.858Z,65.57
2019-02-05T23:03:46.566Z,60.75
2019-02-05T23:06:56.068Z,68.37
2019-02-05T23:09:52.647Z,62.45
2019-02-05T23:13:06.249Z,75.08
2019-02-05T23:15:55.971Z,70.52
2019-02-05T23:18:46.097Z,69.45
2019-02-05T23:21:36.999Z,63.30
2019-02-05T23:24:27.054Z,74.92
2019-02-05T23:27:16.923Z,84.20
2019-02-05T23:30:13.755Z,79.80
2019-02-05T23:33:03.352Z,60.00
2019-02-05T23:35:54.109Z,66.45
2019-02-05T23:39:05.654Z,65.52
2019-02-05T23:41:56.773Z,63.98
2019-02-05T23:44:46.951Z,70.78
2019-02-05T23:47:37.356Z,66.25
2019-02-05T23:50:27.253Z,59.77
2019-02-05T23:53:23.172Z,68.15
2019-02-05T23:56:25.263Z,67.40
2019-02-05T23:59:05.331Z,61.88
